Time;durP1;ratioP1;P1;durP2;ratioP2;P2;SDS_P1;SDS_P2;PMS_P1;PMS_P2;Temp;Humidity;BMP_temperature;BMP_pressure;BME280_temperature;BME280_humidity;BME280_pressure;Samples;Min_cycle;Max_cycle;Signal;HPM_P1;HPM_P2
2022/05/12 00:04:44;;;;;;;8.32;7.53;;;20.50;93.30;;;;;;12756456;23;20188;-91
2022/05/12 00:09:47;;;;;;;6.25;5.75;;;20.60;93.10;;;;;;12737141;23;20168;-90
2022/05/12 00:14:49;;;;;;;6.07;5.57;;;20.50;93.00;;;;;;12736156;23;20216;-90
2022/05/12 00:19:52;;;;;;;5.70;5.20;;;20.60;92.40;;;;;;12738183;23;20173;-91
2022/05/12 00:24:54;;;;;;;5.40;5.00;;;20.70;92.40;;;;;;12754466;23;20243;-92
2022/05/12 00:29:57;;;;;;;6.35;5.75;;;21.00;91.70;;;;;;12737304;23;20164;-91
2022/05/12 00:34:59;;;;;;;9.23;5.68;;;21.10;91.40;;;;;;12760283;23;20370;-92
2022/05/12 00:40:03;;;;;;;6.15;5.55;;;21.30;90.90;;;;;;12733731;23;20216;-91
2022/05/12 00:45:06;;;;;;;6.95;5.72;;;21.30;90.70;;;;;;12754772;23;20188;-91
2022/05/12 00:50:09;;;;;;;8.00;6.18;;;21.30;90.60;;;;;;12734904;23;20216;-91
2022/05/12 00:55:36;;;;;;;5.65;5.15;;;21.30;90.40;;;;;;12736994;23;20172;-90
2022/05/12 01:00:40;;;;;;;6.28;5.78;;;21.30;90.30;;;;;;12721587;23;20180;-91
2022/05/12 01:05:44;;;;;;;5.78;5.28;;;21.30;90.20;;;;;;12734620;23;20567;-92
2022/05/12 01:10:55;;;;;;;6.70;5.80;;;21.30;90.10;;;;;;12734387;23;20215;-90
2022/05/12 01:16:02;;;;;;;5.85;5.28;;;21.40;89.80;;;;;;12747707;23;20164;-91
2022/05/12 01:21:08;;;;;;;5.40;4.90;;;21.40;89.60;;;;;;12747683;23;20180;-90
2022/05/12 01:26:13;;;;;;;7.55;6.43;;;21.40;89.50;;;;;;12730756;23;20173;-90
2022/05/12 01:31:17;;;;;;;6.65;6.05;;;21.30;89.50;;;;;;12731124;23;20173;-91
2022/05/12 01:36:20;;;;;;;6.22;5.70;;;21.20;89.60;;;;;;12731067;23;20219;-92
2022/05/12 01:41:23;;;;;;;5.95;5.45;;;21.20;89.60;;;;;;12727680;23;20886;-91
2022/05/12 01:46:26;;;;;;;6.25;5.75;;;21.20;89.50;;;;;;12746875;23;20655;-92
2022/05/12 01:51:32;;;;;;;6.45;5.78;;;21.10;89.70;;;;;;12746237;23;20172;-91
2022/05/12 01:56:35;;;;;;;6.20;5.60;;;21.20;89.50;;;;;;12727643;23;20184;-90
2022/05/12 02:01:38;;;;;;;6.60;6.07;;;21.10;89.50;;;;;;12703406;23;20268;-91
2022/05/12 02:06:40;;;;;;;6.28;5.68;;;21.00;89.60;;;;;;12703821;23;20231;-91
2022/05/12 02:11:44;;;;;;;7.40;5.82;;;21.00;89.70;;;;;;12728137;23;20721;-91
2022/05/12 02:16:47;;;;;;;6.22;5.47;;;21.00;89.50;;;;;;12732277;23;20566;-91
2022/05/12 02:21:49;;;;;;;5.90;5.40;;;21.00;89.60;;;;;;12734623;23;20188;-90
2022/05/12 02:26:53;;;;;;;6.13;5.63;;;21.00;89.40;;;;;;12741749;23;20501;-91
2022/05/12 02:31:56;;;;;;;6.00;5.47;;;21.00;89.40;;;;;;12734025;23;20489;-91
2022/05/12 02:37:01;;;;;;;6.60;5.82;;;21.00;89.30;;;;;;12731310;23;20651;-91
2022/05/12 02:42:09;;;;;;;5.93;5.43;;;21.10;89.30;;;;;;12705997;23;20197;-91
2022/05/12 02:47:12;;;;;;;7.22;6.53;;;21.00;89.20;;;;;;12730818;23;20204;-91
2022/05/12 02:52:14;;;;;;;7.20;5.15;;;20.90;89.50;;;;;;12732657;23;20215;-91
2022/05/12 02:57:16;;;;;;;6.22;5.65;;;20.90;89.30;;;;;;12756266;23;20572;-90
2022/05/12 03:02:19;;;;;;;6.18;5.68;;;20.90;89.20;;;;;;12747949;23;20188;-91
2022/05/12 03:07:22;;;;;;;6.28;5.53;;;20.90;89.00;;;;;;12733205;23;20573;-91
2022/05/12 03:12:24;;;;;;;5.25;4.85;;;21.00;88.90;;;;;;12730024;23;20188;-91
2022/05/12 03:17:27;;;;;;;6.55;5.95;;;20.80;89.10;;;;;;12732802;23;20228;-90
2022/05/12 03:22:29;;;;;;;5.28;4.82;;;20.90;88.90;;;;;;12731212;23;20197;-90
2022/05/12 03:27:32;;;;;;;6.38;5.82;;;20.80;89.00;;;;;;12731658;23;20200;-90
2022/05/12 03:32:34;;;;;;;6.38;5.75;;;20.80;89.10;;;;;;12728869;23;20533;-90
2022/05/12 03:37:38;;;;;;;5.55;5.05;;;20.90;89.00;;;;;;12731131;23;20173;-89
2022/05/12 03:42:41;;;;;;;5.88;5.25;;;20.80;89.00;;;;;;12728025;23;20196;-90
2022/05/12 03:47:48;;;;;;;6.00;5.45;;;20.80;89.10;;;;;;12728596;23;20204;-90
2022/05/12 03:52:54;;;;;;;5.85;5.35;;;20.80;89.10;;;;;;12729239;23;20243;-90
2022/05/12 03:57:56;;;;;;;5.53;5.03;;;20.90;88.90;;;;;;12730841;23;20176;-90
2022/05/12 04:02:59;;;;;;;5.32;4.90;;;20.90;88.40;;;;;;12730586;23;20193;-90
2022/05/12 04:08:01;;;;;;;6.07;5.53;;;21.00;88.00;;;;;;12730933;23;20169;-90
2022/05/12 04:13:05;;;;;;;5.45;4.95;;;21.00;88.00;;;;;;12730084;23;20228;-90
2022/05/12 04:18:07;;;;;;;5.68;5.18;;;21.00;88.00;;;;;;12731204;23;20181;-90
2022/05/12 04:23:10;;;;;;;5.32;4.82;;;21.00;87.80;;;;;;12731681;23;20536;-90
2022/05/12 04:28:12;;;;;;;5.50;5.00;;;21.10;87.60;;;;;;12728894;23;20572;-90
2022/05/12 04:38:36;;;;;;;6.60;5.90;;;21.10;87.60;;;;;;12748292;23;20172;-89
2022/05/12 04:43:39;;;;;;;5.90;5.40;;;21.00;87.80;;;;;;12731255;23;20235;-91
2022/05/12 04:48:41;;;;;;;8.35;7.43;;;20.80;88.60;;;;;;12730590;23;20192;-92
2022/05/12 04:53:44;;;;;;;6.03;5.53;;;20.70;90.70;;;;;;12728993;23;20220;-91
2022/05/12 04:58:47;;;;;;;5.90;5.32;;;20.90;88.70;;;;;;12728873;23;20266;-91
2022/05/12 05:03:49;;;;;;;6.38;5.78;;;21.00;88.90;;;;;;12747283;23;20570;-92
2022/05/12 05:08:52;;;;;;;7.43;5.47;;;21.20;87.30;;;;;;12730868;23;20169;-91
2022/05/12 05:13:54;;;;;;;5.97;5.47;;;21.10;87.50;;;;;;12729096;23;20236;-92
2022/05/12 05:18:57;;;;;;;22.77;4.85;;;21.10;87.50;;;;;;12725654;23;20184;-92
2022/05/12 05:23:59;;;;;;;10.20;4.93;;;20.60;90.80;;;;;;12727687;23;20247;-90
2022/05/12 05:29:02;;;;;;;23.20;4.43;;;20.00;91.00;;;;;;12724707;23;20184;-91
2022/05/12 05:34:05;;;;;;;8.98;4.35;;;19.90;91.00;;;;;;12725394;23;20184;-91
2022/05/12 05:39:17;;;;;;;22.75;3.13;;;20.00;91.20;;;;;;12762405;23;20196;-96
2022/05/12 05:44:28;;;;;;;18.38;2.60;;;19.70;91.60;;;;;;12783581;23;20192;-96
2022/05/12 05:49:41;;;;;;;14.68;2.42;;;19.90;91.30;;;;;;12726410;23;20189;-96
2022/05/12 05:55:21;;;;;;;7.97;2.70;;;20.10;91.00;;;;;;12522137;23;20215;-96
2022/05/12 09:48:38;;;;;;;11.43;1.30;;;20.50;79.60;;;;;;12642053;23;20252;-79
2022/05/12 09:53:41;;;;;;;14.90;1.90;;;19.70;83.70;;;;;;12643862;23;20173;-79
2022/05/12 09:59:06;;;;;;;4.93;1.45;;;21.00;80.50;;;;;;12695019;23;20228;-80
2022/05/12 10:09:53;;;;;;;10.40;1.10;;;22.10;78.20;;;;;;12673070;23;20225;-79
2022/05/12 10:15:07;;;;;;;8.57;1.08;;;22.20;76.40;;;;;;12644189;23;20243;-79
2022/05/12 10:20:22;;;;;;;7.05;1.10;;;22.70;75.10;;;;;;12689198;23;20173;-79
2022/05/12 10:26:02;;;;;;;3.17;0.80;;;22.30;77.10;;;;;;12681594;23;20216;-79
2022/05/12 10:31:16;;;;;;;6.22;1.25;;;22.40;77.20;;;;;;12646692;23;20165;-82
2022/05/12 10:36:37;;;;;;;3.08;1.15;;;22.40;77.30;;;;;;12689440;23;20169;-79
2022/05/12 10:42:04;;;;;;;2.90;1.05;;;22.40;77.30;;;;;;12658696;23;20173;-79
2022/05/12 10:47:10;;;;;;;2.72;0.80;;;22.70;76.60;;;;;;12649683;23;20236;-79
2022/05/12 10:52:34;;;;;;;3.80;1.00;;;22.90;76.10;;;;;;12711113;23;20574;-79
2022/05/12 10:57:55;;;;;;;5.30;1.20;;;21.90;73.50;;;;;;12680042;23;20173;-79
2022/05/12 11:03:14;;;;;;;3.78;0.70;;;22.30;76.50;;;;;;12688326;23;20181;-79
2022/05/12 11:08:24;;;;;;;1.88;1.33;;;22.50;76.00;;;;;;12687083;23;20169;-79
2022/05/12 11:13:40;;;;;;;4.60;1.00;;;22.70;77.10;;;;;;12650836;23;20515;-79
2022/05/12 11:19:01;;;;;;;8.52;0.90;;;22.90;75.70;;;;;;12685002;23;20169;-78
2022/05/12 11:24:19;;;;;;;2.58;1.00;;;22.50;76.40;;;;;;12685553;23;20192;-78
2022/05/12 11:29:44;;;;;;;1.00;0.80;;;22.60;76.50;;;;;;12690082;23;20189;-78
2022/05/12 11:34:52;;;;;;;1.58;0.90;;;22.00;77.80;;;;;;12668410;23;20169;-79
2022/05/12 11:39:57;;;;;;;4.88;0.60;;;22.30;77.30;;;;;;12668571;23;20511;-79
2022/05/12 11:45:06;;;;;;;2.72;1.05;;;22.00;77.90;;;;;;12652623;23;20200;-79
2022/05/12 11:50:38;;;;;;;2.67;1.38;;;22.00;77.70;;;;;;12655219;23;20197;-79
2022/05/12 11:56:09;;;;;;;1.85;0.95;;;22.50;76.70;;;;;;12655354;23;20504;-79
2022/05/12 12:01:22;;;;;;;2.55;0.77;;;22.20;77.50;;;;;;12661688;23;20188;-79
2022/05/12 12:06:45;;;;;;;9.55;0.82;;;22.30;76.80;;;;;;12681281;23;20246;-79
2022/05/12 12:11:48;;;;;;;1.65;0.73;;;22.30;74.40;;;;;;12638077;23;20181;-79
2022/05/12 12:17:27;;;;;;;0.70;0.55;;;22.40;76.60;;;;;;12685919;23;20243;-79
2022/05/12 12:22:53;;;;;;;3.95;1.15;;;22.60;76.10;;;;;;12683524;23;20173;-79
2022/05/12 12:27:58;;;;;;;1.40;0.60;;;22.40;75.40;;;;;;12649136;23;20169;-78
2022/05/12 12:33:16;;;;;;;1.42;0.60;;;22.40;75.10;;;;;;12639971;23;20313;-79
2022/05/12 12:38:46;;;;;;;0.95;0.50;;;22.50;70.60;;;;;;12640718;23;20185;-79
2022/05/12 12:44:12;;;;;;;3.03;0.57;;;21.50;76.30;;;;;;12662324;23;20209;-81
2022/05/12 12:49:28;;;;;;;0.88;0.55;;;21.60;65.20;;;;;;12625956;23;20247;-80
2022/05/12 12:59:57;;;;;;;4.13;0.40;;;22.10;72.40;;;;;;12664331;23;20639;-80
2022/05/12 13:05:13;;;;;;;1.27;0.73;;;20.40;74.80;;;;;;12683112;23;20527;-80
2022/05/12 13:10:17;;;;;;;7.88;1.15;;;21.10;78.30;;;;;;12638468;23;20180;-79
2022/05/12 13:15:22;;;;;;;3.40;0.60;;;21.90;69.40;;;;;;12681733;23;20225;-80
2022/05/12 13:20:32;;;;;;;1.35;0.70;;;22.30;74.80;;;;;;12667329;23;20251;-80
2022/05/12 13:25:37;;;;;;;2.20;0.65;;;22.30;68.20;;;;;;12658735;23;20244;-79
2022/05/12 13:30:44;;;;;;;2.38;0.60;;;21.90;73.70;;;;;;12686227;23;20498;-79
2022/05/12 13:36:04;;;;;;;2.47;0.95;;;22.50;73.70;;;;;;12685460;23;20173;-78
2022/05/12 13:41:09;;;;;;;1.10;0.47;;;22.20;73.50;;;;;;12691383;23;20188;-79
2022/05/12 13:46:15;;;;;;;3.13;0.50;;;22.60;73.00;;;;;;12668572;23;20200;-79
2022/05/12 13:52:12;;;;;;;0.60;0.50;;;22.70;71.30;;;;;;12643709;23;20174;-79
2022/05/12 13:57:22;;;;;;;3.22;0.40;;;22.80;69.20;;;;;;12426929;23;20699;-78
2022/05/12 14:02:33;;;;;;;0.68;0.60;;;21.70;63.50;;;;;;12427657;23;20579;-78
2022/05/12 14:07:36;;;;;;;1.27;0.80;;;21.50;71.80;;;;;;12408176;23;20199;-79
2022/05/12 14:19:13;;;;;;;5.82;1.00;;;22.40;72.40;;;;;;12427311;23;20183;-78
2022/05/12 14:23:23;;;;;;;6.05;0.60;;;21.70;59.10;;;;;;12446256;23;20175;-78
2022/05/12 14:28:25;;;;;;;1.35;0.50;;;21.80;59.40;;;;;;12618790;23;20177;-78
2022/05/12 14:33:32;;;;;;;3.90;0.50;;;21.90;59.60;;;;;;12689268;23;20569;-78
2022/05/12 14:38:35;;;;;;;8.10;0.63;;;21.50;60.80;;;;;;12644489;23;20511;-78
2022/05/12 14:43:38;;;;;;;4.93;0.60;;;21.80;59.40;;;;;;12672151;23;20189;-80
2022/05/12 14:48:45;;;;;;;5.88;0.70;;;22.60;58.50;;;;;;12689620;23;20165;-79
2022/05/12 14:53:47;;;;;;;2.15;0.38;;;22.90;58.50;;;;;;12662957;23;20169;-79
2022/05/12 14:58:51;;;;;;;5.72;0.68;;;;;;;;;;12671353;23;20176;-78
2022/05/12 15:03:58;;;;;;;3.70;0.85;;;22.50;57.80;;;;;;12688910;23;20185;-78
2022/05/12 15:09:01;;;;;;;3.25;0.40;;;23.80;59.00;;;;;;12693993;23;20209;-78
2022/05/12 15:14:04;;;;;;;2.92;0.95;;;23.20;59.60;;;;;;12645065;23;20185;-77
2022/05/12 15:19:07;;;;;;;5.72;0.82;;;23.50;59.90;;;;;;12693398;23;20245;-78
2022/05/12 15:24:11;;;;;;;4.18;1.05;;;23.40;58.60;;;;;;12670501;23;20248;-78
2022/05/12 15:29:14;;;;;;;1.13;0.60;;;23.70;58.30;;;;;;12668946;23;20205;-78
2022/05/12 15:34:16;;;;;;;3.20;0.70;;;22.60;60.60;;;;;;12644644;23;20575;-77
2022/05/12 15:39:21;;;;;;;0.93;0.35;;;23.70;60.00;;;;;;12644660;23;20177;-77
2022/05/12 15:44:24;;;;;;;4.35;0.50;;;23.50;57.10;;;;;;12666659;23;20592;-77
2022/05/12 15:49:30;;;;;;;4.13;0.40;;;23.50;56.60;;;;;;12641419;23;20173;-77
2022/05/12 15:54:33;;;;;;;3.35;0.40;;;23.40;61.00;;;;;;12617036;23;20185;-77
2022/05/12 15:59:37;;;;;;;1.65;0.63;;;22.40;63.00;;;;;;12642853;23;20857;-77
2022/05/12 16:04:40;;;;;;;1.20;0.40;;;21.20;60.50;;;;;;12685020;23;20193;-77
2022/05/12 16:09:44;;;;;;;5.20;0.73;;;22.70;63.70;;;;;;12666824;23;20169;-77
2022/05/12 16:14:50;;;;;;;2.10;0.43;;;23.50;58.10;;;;;;12666206;23;20193;-77
2022/05/12 16:20:00;;;;;;;1.45;0.60;;;23.70;61.70;;;;;;12660305;23;20232;-77
2022/05/12 16:25:04;;;;;;;1.38;0.63;;;23.90;57.40;;;;;;12638402;23;20205;-78
2022/05/12 16:30:12;;;;;;;4.20;0.80;;;23.70;61.00;;;;;;12665559;23;20169;-77
2022/05/12 16:35:16;;;;;;;2.03;0.57;;;23.40;58.80;;;;;;12688017;23;20651;-77
2022/05/12 16:40:21;;;;;;;1.90;0.50;;;21.90;63.20;;;;;;12640937;23;20552;-77
2022/05/12 16:45:24;;;;;;;1.80;0.30;;;22.40;62.00;;;;;;12651559;23;20283;-77
2022/05/12 16:50:28;;;;;;;2.47;0.38;;;22.50;63.90;;;;;;12688561;23;20240;-77
2022/05/12 16:55:33;;;;;;;1.00;0.52;;;22.60;63.90;;;;;;12638693;23;20228;-77
2022/05/12 17:00:37;;;;;;;2.15;0.65;;;22.60;57.40;;;;;;12639049;23;20655;-78
2022/05/12 17:05:41;;;;;;;3.65;0.95;;;22.80;57.40;;;;;;12639482;23;20189;-78
2022/05/12 17:10:47;;;;;;;1.77;0.50;;;23.30;57.20;;;;;;12665048;23;20236;-77
2022/05/12 17:15:50;;;;;;;3.22;0.80;;;23.00;56.30;;;;;;12665310;23;20209;-77
2022/05/12 17:20:54;;;;;;;1.60;0.40;;;22.30;58.80;;;;;;12638898;23;20263;-77
2022/05/12 17:25:58;;;;;;;1.05;0.60;;;23.10;58.20;;;;;;12666282;23;20197;-77
2022/05/12 17:31:01;;;;;;;3.45;0.60;;;23.10;58.70;;;;;;12641303;23;20243;-77
2022/05/12 17:36:11;;;;;;;3.42;0.70;;;23.00;58.70;;;;;;12639349;23;20185;-77
2022/05/12 17:41:15;;;;;;;1.20;0.50;;;22.50;55.30;;;;;;12664332;23;20185;-77
2022/05/12 17:46:18;;;;;;;1.00;0.45;;;22.20;55.70;;;;;;12641053;23;20201;-77
2022/05/12 17:51:22;;;;;;;0.88;0.70;;;22.10;56.80;;;;;;12643619;23;20177;-77
2022/05/12 17:56:26;;;;;;;1.55;0.60;;;;;;;;;;12641031;23;20225;-77
2022/05/12 18:01:29;;;;;;;2.25;0.93;;;;;;;;;;12620648;23;20185;-78
2022/05/12 18:06:34;;;;;;;1.80;1.08;;;21.90;57.40;;;;;;12694504;23;20263;-77
2022/05/12 18:11:40;;;;;;;3.20;0.68;;;21.90;58.80;;;;;;12646460;23;20203;-78
2022/05/12 18:16:44;;;;;;;1.98;0.75;;;21.80;59.50;;;;;;12717456;23;20204;-77
2022/05/12 18:21:48;;;;;;;3.45;0.80;;;21.90;58.10;;;;;;12708523;23;20255;-76
2022/05/12 18:26:51;;;;;;;0.50;0.50;;;22.10;58.30;;;;;;12749205;23;20211;-81
2022/05/12 18:31:57;;;;;;;2.50;0.60;;;22.00;58.70;;;;;;12737709;23;20540;-83
2022/05/12 18:37:01;;;;;;;4.85;0.73;;;21.80;59.30;;;;;;12745200;23;20196;-80
2022/05/12 18:42:05;;;;;;;4.13;0.85;;;19.70;63.80;;;;;;12736541;23;20499;-82
2022/05/12 18:47:09;;;;;;;2.28;1.02;;;20.00;63.70;;;;;;12733441;23;20188;-81
2022/05/12 18:52:14;;;;;;;3.55;1.17;;;;;;;;;;12683113;23;20176;-78
2022/05/12 18:57:17;;;;;;;4.53;0.95;;;15.10;74.90;;;;;;12705322;23;20239;-79
2022/05/12 19:02:20;;;;;;;6.95;1.70;;;16.80;77.20;;;;;;12733639;23;20523;-79
2022/05/12 19:07:25;;;;;;;73.03;5.57;;;17.20;76.00;;;;;;12732333;23;20584;-77
2022/05/12 19:12:31;;;;;;;2.25;1.17;;;17.70;75.70;;;;;;12706943;23;20172;-77
2022/05/12 19:17:44;;;;;;;3.58;1.42;;;18.40;74.50;;;;;;12732182;23;20515;-78
2022/05/12 19:22:47;;;;;;;5.43;1.85;;;18.50;72.60;;;;;;12701799;23;20204;-76
2022/05/12 19:27:51;;;;;;;2.67;1.35;;;17.90;73.20;;;;;;12732191;23;20184;-78
2022/05/12 19:32:55;;;;;;;11.57;3.80;;;17.90;75.40;;;;;;12733439;23;20168;-77
2022/05/12 19:38:00;;;;;;;4.88;2.80;;;17.70;75.60;;;;;;12706765;23;20223;-78
2022/05/12 19:43:04;;;;;;;7.88;2.08;;;17.10;73.10;;;;;;12705679;23;20184;-79
2022/05/12 19:48:09;;;;;;;12.63;2.70;;;16.00;81.50;;;;;;12734900;23;20219;-80
2022/05/12 19:53:12;;;;;;;4.10;1.67;;;17.30;78.90;;;;;;12734829;23;20219;-81
2022/05/12 19:58:16;;;;;;;3.95;2.60;;;17.90;77.40;;;;;;12734038;23;20508;-78
2022/05/12 20:03:20;;;;;;;1.30;1.10;;;17.80;77.30;;;;;;12710223;23;20199;-84
2022/05/12 20:08:24;;;;;;;4.50;1.95;;;18.20;77.10;;;;;;12741575;23;20200;-78
2022/05/12 20:13:27;;;;;;;3.90;2.67;;;18.40;76.10;;;;;;12731865;23;20180;-77
2022/05/12 20:18:33;;;;;;;7.43;4.35;;;18.30;76.10;;;;;;12730841;23;20530;-76
2022/05/12 20:23:35;;;;;;;21.27;5.10;;;17.90;76.90;;;;;;12704526;23;20176;-76
2022/05/12 20:28:39;;;;;;;5.55;3.22;;;16.70;80.00;;;;;;12704318;23;20200;-77
2022/05/12 20:33:42;;;;;;;6.43;3.45;;;16.50;81.90;;;;;;12705968;23;20172;-76
2022/05/12 20:38:45;;;;;;;1.67;1.30;;;16.60;81.70;;;;;;12703782;23;20718;-77
2022/05/12 20:43:48;;;;;;;6.53;2.90;;;17.00;82.60;;;;;;12731159;23;20219;-77
2022/05/12 20:48:53;;;;;;;12.00;4.28;;;17.10;81.70;;;;;;12704014;23;20683;-78
2022/05/12 20:53:58;;;;;;;12.77;4.78;;;16.60;81.90;;;;;;12743646;23;20557;-79
2022/05/12 20:59:01;;;;;;;11.05;6.30;;;16.00;82.50;;;;;;12681298;23;20251;-78
2022/05/12 21:04:04;;;;;;;9.65;5.32;;;15.70;80.80;;;;;;12733039;23;20228;-78
2022/05/12 21:09:09;;;;;;;5.72;3.00;;;14.80;86.60;;;;;;12731953;23;20231;-79
2022/05/12 21:14:16;;;;;;;5.55;2.35;;;15.10;90.20;;;;;;12710682;23;20577;-77
2022/05/12 21:19:21;;;;;;;1.23;1.08;;;15.20;90.40;;;;;;12745711;23;20200;-77
2022/05/12 21:24:24;;;;;;;1.73;1.40;;;16.20;90.30;;;;;;12729303;23;20219;-77
2022/05/12 21:29:27;;;;;;;4.85;3.13;;;16.50;87.40;;;;;;12730400;23;20472;-77
2022/05/12 21:34:30;;;;;;;5.38;2.72;;;16.20;83.90;;;;;;12730582;23;20215;-77
2022/05/12 21:39:32;;;;;;;5.05;1.85;;;15.20;90.50;;;;;;12731912;23;20196;-77
2022/05/12 21:44:34;;;;;;;2.58;2.38;;;15.50;91.40;;;;;;12705178;23;20184;-76
2022/05/12 21:49:37;;;;;;;2.40;1.20;;;15.80;90.10;;;;;;12730426;23;20192;-77
2022/05/12 21:54:39;;;;;;;7.80;2.30;;;16.50;89.50;;;;;;12731957;23;20164;-77
2022/05/12 22:05:03;;;;;;;5.40;1.65;;;16.20;89.90;;;;;;12703398;23;20184;-78
2022/05/12 22:10:06;;;;;;;2.47;1.50;;;16.40;89.10;;;;;;12730790;23;20228;-77
2022/05/12 22:15:10;;;;;;;6.95;2.60;;;16.90;87.80;;;;;;12705482;23;20227;-77
2022/05/12 22:20:13;;;;;;;4.43;2.92;;;16.30;86.50;;;;;;12729260;23;20197;-78
2022/05/12 22:25:16;;;;;;;9.00;2.10;;;16.20;90.10;;;;;;12729388;23;20168;-78
2022/05/12 22:30:19;;;;;;;6.15;2.85;;;16.10;90.30;;;;;;12730463;23;20220;-78
2022/05/12 22:35:21;;;;;;;7.30;2.88;;;16.50;88.40;;;;;;12730238;23;20504;-77
2022/05/12 22:40:24;;;;;;;7.43;3.20;;;16.20;90.10;;;;;;12731647;23;20200;-77
2022/05/12 22:45:27;;;;;;;6.60;2.30;;;16.30;90.00;;;;;;12733060;23;20192;-77
2022/05/12 22:50:29;;;;;;;4.15;2.83;;;16.30;90.10;;;;;;12749407;23;20164;-77
2022/05/12 22:55:32;;;;;;;8.13;4.03;;;16.50;89.20;;;;;;12731904;23;20539;-77
2022/05/12 23:00:35;;;;;;;16.40;5.65;;;16.10;87.10;;;;;;12732279;23;20176;-78
2022/05/12 23:05:37;;;;;;;7.22;3.80;;;14.90;89.30;;;;;;12680362;23;20204;-78
2022/05/12 23:10:40;;;;;;;11.32;3.55;;;15.00;91.20;;;;;;12730979;23;20165;-77
2022/05/12 23:15:44;;;;;;;4.22;2.08;;;15.70;91.60;;;;;;12730094;23;20568;-77
2022/05/12 23:26:08;;;;;;;14.15;3.80;;;16.00;91.30;;;;;;12747269;23;20238;-78
2022/05/12 23:31:10;;;;;;;9.45;4.53;;;16.00;89.90;;;;;;12732281;23;20164;-78
2022/05/12 23:36:13;;;;;;;12.55;3.47;;;15.40;91.60;;;;;;12731623;23;20224;-77
2022/05/12 23:41:16;;;;;;;5.20;2.80;;;15.80;92.10;;;;;;12730047;23;20513;-78
2022/05/12 23:46:19;;;;;;;7.68;4.00;;;15.80;91.60;;;;;;12748912;23;20192;-78
2022/05/12 23:51:21;;;;;;;7.45;4.75;;;15.20;90.70;;;;;;12732477;23;20164;-78
2022/05/12 23:56:24;;;;;;;9.23;5.47;;;14.60;92.70;;;;;;12732294;23;20235;-78
